ENHK

Hasvik Airport

Hasvik, Norway
METAR ENHK 201350Z 31008KT 9999 BKN023 13/12 Q1015
Observed Flight Rules
Jul-20 @ 13:50 UTC (54 minutes ago) Marginal Visual Flight Rules
Wind Visibility Clouds
310° at 8 knots 10,000+ meters
  • Broken at 2,300' AGL
Temperatures Readings
Current 13°C / 55°F
Dewpoint 12°C / 54°F
Humidity 94%
Altimeter 29.97" Hg
Pressure 1015 hPa
Elevation 10
METAR ENHK 201350Z 31008KT 9999 BKN023 13/12 Q1015
Observed Flight Rules
Jul-20 @ 13:50 UTC
(54 minutes ago)
MVFR
Wind Visibility
310° at 8 knots 10,000+ meters
Clouds
  • Broken at 2,300' AGL
Temperature Dewpoint
13°C / 55°F 12°C / 54°F
Humidity Altimeter Pressure
94% 29.97" Hg 1015 hPa